createdAt,value
2016-12-19T00:00:06.027Z,0
2016-12-19T00:01:06.196Z,0
2016-12-19T00:02:05.395Z,0
2016-12-19T00:03:06.682Z,0
2016-12-19T00:04:07.043Z,0
2016-12-19T00:05:05.997Z,0
2016-12-19T00:06:06.268Z,0
2016-12-19T00:07:06.844Z,0
2016-12-19T00:08:08.230Z,0
2016-12-19T00:09:05.741Z,0
2016-12-19T00:10:06.431Z,0
2016-12-19T00:11:05.426Z,0
2016-12-19T00:12:07.387Z,0
2016-12-19T00:13:06.325Z,0
2016-12-19T00:14:05.689Z,0
2016-12-19T00:15:05.777Z,0
2016-12-19T00:16:06.201Z,0
2016-12-19T00:17:06.423Z,0
2016-12-19T00:18:06.999Z,0
2016-12-19T00:19:07.092Z,0
2016-12-19T00:20:06.747Z,0
2016-12-19T00:21:06.093Z,0
2016-12-19T00:22:06.380Z,0
2016-12-19T00:23:06.314Z,0
2016-12-19T00:24:06.431Z,0
2016-12-19T00:25:06.437Z,0
2016-12-19T00:26:06.537Z,0
2016-12-19T00:27:06.124Z,0
2016-12-19T00:28:07.138Z,0
2016-12-19T00:29:06.563Z,0
2016-12-19T00:30:06.991Z,0
2016-12-19T00:31:05.977Z,0
2016-12-19T00:32:07.837Z,0
2016-12-19T00:33:06.764Z,0
2016-12-19T00:34:06.795Z,0
2016-12-19T00:35:06.978Z,0
2016-12-19T00:36:07.392Z,0
2016-12-19T00:37:06.792Z,0
2016-12-19T00:38:06.788Z,0
2016-12-19T00:39:07.147Z,0
2016-12-19T00:40:06.499Z,0
2016-12-19T00:41:06.156Z,0
2016-12-19T00:42:06.999Z,0
2016-12-19T00:43:06.954Z,0
2016-12-19T00:44:07.214Z,0
2016-12-19T00:45:07.127Z,0
2016-12-19T00:46:06.820Z,0
2016-12-19T00:47:07.303Z,0
2016-12-19T00:48:07.083Z,0
2016-12-19T00:49:06.659Z,0
2016-12-19T00:50:06.360Z,0
2016-12-19T00:51:07.083Z,0
2016-12-19T00:52:06.873Z,0
2016-12-19T00:53:07.248Z,0
2016-12-19T00:54:07.602Z,0
2016-12-19T00:55:07.530Z,0
2016-12-19T00:56:06.831Z,0
2016-12-19T00:57:06.682Z,0
2016-12-19T00:58:06.403Z,0
2016-12-19T00:59:06.972Z,0
2016-12-19T01:00:06.495Z,0
2016-12-19T01:01:07.325Z,0
2016-12-19T01:02:07.211Z,0
2016-12-19T01:03:06.455Z,0
2016-12-19T01:04:07.685Z,0
2016-12-19T01:05:06.811Z,0
2016-12-19T01:06:06.793Z,0
2016-12-19T01:07:07.515Z,0
2016-12-19T01:08:07.628Z,0
2016-12-19T01:09:07.126Z,0
2016-12-19T01:10:07.021Z,0
2016-12-19T01:11:07.399Z,0
2016-12-19T01:12:06.835Z,0
2016-12-19T01:13:07.544Z,0
2016-12-19T01:14:07.214Z,0
2016-12-19T01:15:06.932Z,0
2016-12-19T01:16:07.408Z,0
2016-12-19T01:17:07.331Z,0
2016-12-19T01:18:07.554Z,0
2016-12-19T01:19:06.757Z,0
2016-12-19T01:20:06.845Z,0
2016-12-19T01:21:07.873Z,0
2016-12-19T01:22:06.866Z,0
2016-12-19T01:23:06.875Z,0
2016-12-19T01:24:06.890Z,0
2016-12-19T01:25:08.075Z,0
2016-12-19T01:26:06.881Z,0
2016-12-19T01:27:08.545Z,0
2016-12-19T01:28:06.807Z,0
2016-12-19T01:29:06.874Z,0
2016-12-19T01:30:07.257Z,0
2016-12-19T01:31:07.941Z,0
2016-12-19T01:32:07.029Z,0
2016-12-19T01:33:07.357Z,0
2016-12-19T01:34:07.259Z,0
2016-12-19T01:35:07.364Z,0
2016-12-19T01:36:06.955Z,0
2016-12-19T01:37:07.404Z,0
2016-12-19T01:38:07.326Z,0
2016-12-19T01:39:07.725Z,0
2016-12-19T01:40:07.316Z,0
2016-12-19T01:41:08.647Z,0
2016-12-19T01:42:07.086Z,0
2016-12-19T01:43:08.735Z,0
2016-12-19T01:44:07.319Z,0
2016-12-19T01:45:06.824Z,0
2016-12-19T01:46:07.365Z,0
2016-12-19T01:47:07.839Z,0
2016-12-19T01:48:07.489Z,0
2016-12-19T01:49:08.317Z,0
2016-12-19T01:50:07.649Z,0
2016-12-19T01:51:07.134Z,0
2016-12-19T01:52:08.007Z,0
2016-12-19T01:53:07.816Z,0
2016-12-19T01:54:07.184Z,0
2016-12-19T01:55:08.619Z,0
2016-12-19T01:56:08.336Z,0
2016-12-19T01:57:07.700Z,0
2016-12-19T01:58:07.972Z,0
2016-12-19T01:59:08.390Z,0
2016-12-19T02:00:07.443Z,0
2016-12-19T02:01:07.972Z,0
2016-12-19T02:02:07.740Z,0
2016-12-19T02:03:07.912Z,0
2016-12-19T02:04:08.078Z,0
2016-12-19T02:05:07.892Z,0
2016-12-19T02:06:08.367Z,0
2016-12-19T02:07:08.328Z,0
2016-12-19T02:08:07.632Z,0
2016-12-19T02:09:08.124Z,0
2016-12-19T02:10:07.800Z,0
2016-12-19T02:11:07.966Z,0
2016-12-19T02:12:08.613Z,0
2016-12-19T02:13:08.258Z,0
2016-12-19T02:14:09.126Z,0
2016-12-19T02:15:07.593Z,0
2016-12-19T02:16:08.749Z,0
2016-12-19T02:17:08.471Z,0
2016-12-19T02:18:08.329Z,0
2016-12-19T02:19:08.042Z,0
2016-12-19T02:20:08.923Z,0
2016-12-19T02:21:07.767Z,0
2016-12-19T02:22:07.904Z,0
2016-12-19T02:23:07.825Z,0
2016-12-19T02:24:08.744Z,0
2016-12-19T02:25:07.961Z,0
2016-12-19T02:26:07.782Z,0
2016-12-19T02:27:08.187Z,0
2016-12-19T02:28:08.033Z,0
2016-12-19T02:29:08.385Z,0
2016-12-19T02:30:08.208Z,0
2016-12-19T02:31:08.123Z,0
2016-12-19T02:32:08.323Z,0
2016-12-19T02:33:07.980Z,0
2016-12-19T02:34:07.860Z,0
2016-12-19T02:35:08.356Z,0
2016-12-19T02:36:08.575Z,0
2016-12-19T02:37:08.708Z,0
2016-12-19T02:38:08.360Z,0
2016-12-19T02:39:08.271Z,0
2016-12-19T02:40:08.228Z,0
2016-12-19T02:41:08.348Z,0
2016-12-19T02:42:07.946Z,0
2016-12-19T02:43:09.527Z,0
2016-12-19T02:44:08.265Z,0
2016-12-19T02:45:07.911Z,0
2016-12-19T02:46:08.262Z,0
2016-12-19T02:47:07.987Z,0
2016-12-19T02:48:07.781Z,0
2016-12-19T02:49:08.058Z,0
2016-12-19T02:50:08.201Z,0
2016-12-19T02:51:08.406Z,0
2016-12-19T02:52:08.296Z,0
2016-12-19T02:53:08.342Z,0
2016-12-19T02:54:08.363Z,0
2016-12-19T02:55:09.394Z,0
2016-12-19T02:56:08.858Z,0
2016-12-19T02:57:08.746Z,0
2016-12-19T02:58:08.926Z,0
2016-12-19T02:59:09.042Z,0
2016-12-19T03:00:08.809Z,0
2016-12-19T03:01:08.586Z,0
2016-12-19T03:02:08.207Z,0
2016-12-19T03:03:07.927Z,0
2016-12-19T03:04:09.536Z,0
2016-12-19T03:05:08.384Z,0
2016-12-19T03:06:09.456Z,0
2016-12-19T03:07:09.206Z,0
2016-12-19T03:08:08.439Z,0
2016-12-19T03:09:08.424Z,0
2016-12-19T03:10:08.651Z,0
2016-12-19T03:11:09.471Z,0
2016-12-19T03:12:08.966Z,0
2016-12-19T03:13:08.570Z,0
2016-12-19T03:14:09.496Z,0
2016-12-19T03:15:08.575Z,0
2016-12-19T03:16:08.837Z,0
2016-12-19T03:17:08.460Z,0
2016-12-19T03:18:09.026Z,0
2016-12-19T03:19:09.095Z,0
2016-12-19T03:20:09.423Z,0
2016-12-19T03:21:09.593Z,0
2016-12-19T03:22:08.630Z,0
2016-12-19T03:23:08.666Z,0
2016-12-19T03:24:08.686Z,0
2016-12-19T03:25:10.366Z,0
2016-12-19T03:26:09.432Z,0
2016-12-19T03:27:09.500Z,0
2016-12-19T03:28:09.324Z,0
2016-12-19T03:29:09.175Z,0
2016-12-19T03:30:09.158Z,0
2016-12-19T03:31:09.171Z,0
2016-12-19T03:32:08.870Z,0
2016-12-19T03:33:09.098Z,0
2016-12-19T03:34:08.879Z,0
2016-12-19T03:35:09.725Z,0
2016-12-19T03:36:08.989Z,0
2016-12-19T03:37:09.607Z,0
2016-12-19T03:38:09.667Z,0
2016-12-19T03:39:09.303Z,0
2016-12-19T03:40:09.687Z,0
2016-12-19T03:41:08.610Z,0
2016-12-19T03:42:10.204Z,0
2016-12-19T03:43:08.675Z,0
2016-12-19T03:44:09.587Z,0
2016-12-19T03:45:09.790Z,0
2016-12-19T03:46:09.098Z,0
2016-12-19T03:47:09.309Z,0
2016-12-19T03:48:09.771Z,0
2016-12-19T03:49:09.521Z,0
2016-12-19T03:50:09.869Z,0
2016-12-19T03:51:09.275Z,0
2016-12-19T03:52:10.366Z,0
2016-12-19T03:53:09.296Z,0
2016-12-19T03:54:10.658Z,0
2016-12-19T03:55:09.612Z,0
2016-12-19T03:56:08.994Z,0
2016-12-19T03:57:09.181Z,0
2016-12-19T03:58:09.137Z,0
2016-12-19T03:59:10.423Z,0
2016-12-19T04:00:09.477Z,0
2016-12-19T04:01:09.571Z,0
2016-12-19T04:02:10.777Z,0
2016-12-19T04:03:10.112Z,0
2016-12-19T04:04:09.047Z,0
2016-12-19T04:05:10.493Z,0
2016-12-19T04:06:09.835Z,0
2016-12-19T04:07:09.831Z,0
2016-12-19T04:08:09.642Z,0
2016-12-19T04:09:09.746Z,0
2016-12-19T04:10:10.836Z,0
2016-12-19T04:11:09.487Z,0
2016-12-19T04:12:09.302Z,0
2016-12-19T04:13:09.980Z,0
2016-12-19T04:14:09.541Z,0
2016-12-19T04:15:09.610Z,0
2016-12-19T04:16:09.004Z,0
2016-12-19T04:17:10.973Z,0
2016-12-19T04:18:10.322Z,0
2016-12-19T04:19:09.848Z,0
2016-12-19T04:20:11.277Z,0
2016-12-19T04:21:10.452Z,0
2016-12-19T04:22:08.975Z,0
2016-12-19T04:23:10.563Z,0
2016-12-19T04:24:10.170Z,0
2016-12-19T04:25:10.631Z,0
2016-12-19T04:26:10.897Z,0
2016-12-19T04:27:10.600Z,0
2016-12-19T04:28:10.167Z,0
2016-12-19T04:29:10.693Z,0
2016-12-19T04:30:09.794Z,0
2016-12-19T04:31:10.895Z,0
2016-12-19T04:32:10.718Z,0
2016-12-19T04:33:09.498Z,0
2016-12-19T04:34:09.641Z,0
2016-12-19T04:35:10.815Z,0
2016-12-19T04:36:09.830Z,0
2016-12-19T04:37:10.260Z,0
2016-12-19T04:38:10.591Z,0
2016-12-19T04:39:10.558Z,0
2016-12-19T04:40:10.640Z,0
2016-12-19T04:41:10.824Z,0
2016-12-19T04:42:10.580Z,0
2016-12-19T04:43:11.280Z,0
2016-12-19T04:44:10.165Z,0
2016-12-19T04:45:10.973Z,0
2016-12-19T04:46:09.899Z,0
2016-12-19T04:47:10.746Z,0
2016-12-19T04:48:10.637Z,0
2016-12-19T04:49:11.234Z,0
2016-12-19T04:50:10.397Z,0
2016-12-19T04:51:10.326Z,0
2016-12-19T04:52:11.307Z,0
2016-12-19T04:53:10.450Z,0
2016-12-19T04:54:10.904Z,0
2016-12-19T04:55:09.443Z,0
2016-12-19T04:56:10.969Z,0
2016-12-19T04:57:10.315Z,0
2016-12-19T04:58:10.426Z,0
2016-12-19T04:59:10.382Z,0
2016-12-19T05:00:09.970Z,0
2016-12-19T05:01:11.656Z,0
2016-12-19T05:02:09.550Z,0
2016-12-19T05:03:12.392Z,0
2016-12-19T05:04:10.969Z,0
2016-12-19T05:05:10.886Z,0
2016-12-19T05:06:11.346Z,0
2016-12-19T05:07:13.751Z,0
2016-12-19T05:08:12.740Z,0
2016-12-19T05:09:10.888Z,0
2016-12-19T05:10:11.634Z,0
2016-12-19T05:11:13.717Z,0
2016-12-19T05:12:12.511Z,0
2016-12-19T05:13:12.985Z,0
2016-12-19T05:14:12.484Z,0
2016-12-19T05:15:11.930Z,0
2016-12-19T05:16:12.504Z,0
2016-12-19T05:17:15.014Z,0
2016-12-19T05:18:13.000Z,0
2016-12-19T05:19:10.593Z,0
2016-12-19T05:20:13.674Z,0
2016-12-19T05:21:12.361Z,0
2016-12-19T05:22:13.643Z,0
2016-12-19T05:23:11.391Z,0
2016-12-19T05:24:14.117Z,0
2016-12-19T05:25:12.691Z,0
2016-12-19T05:26:11.799Z,0
2016-12-19T05:27:12.315Z,0
2016-12-19T05:28:13.169Z,0
2016-12-19T05:29:13.989Z,0
2016-12-19T05:30:13.892Z,0
2016-12-19T05:31:14.151Z,0
2016-12-19T05:32:13.032Z,0
2016-12-19T05:33:12.447Z,0
2016-12-19T05:34:13.661Z,0
2016-12-19T05:35:14.087Z,0
2016-12-19T05:36:12.013Z,0
2016-12-19T05:37:13.432Z,0
2016-12-19T05:38:12.846Z,0
2016-12-19T05:39:12.142Z,0
2016-12-19T05:40:13.825Z,0
2016-12-19T05:41:13.239Z,0
2016-12-19T05:42:13.202Z,0
2016-12-19T05:43:15.243Z,0
2016-12-19T05:44:13.902Z,0
2016-12-19T05:45:14.107Z,0
2016-12-19T05:46:13.696Z,0
2016-12-19T05:47:12.721Z,0
2016-12-19T05:48:10.932Z,0
2016-12-19T05:49:11.573Z,0
2016-12-19T05:50:12.606Z,0
2016-12-19T05:51:11.960Z,0
2016-12-19T05:52:12.278Z,0
2016-12-19T05:53:13.445Z,0
2016-12-19T05:54:12.891Z,0
2016-12-19T05:55:13.086Z,0
2016-12-19T05:56:13.054Z,0
2016-12-19T05:57:13.102Z,0
2016-12-19T05:58:12.936Z,0
2016-12-19T05:59:14.406Z,0
2016-12-19T06:00:13.939Z,0
2016-12-19T06:01:15.382Z,0
2016-12-19T06:02:13.665Z,0
2016-12-19T06:03:12.505Z,0
2016-12-19T06:04:12.431Z,0
2016-12-19T06:05:11.926Z,0
2016-12-19T06:06:13.704Z,0
2016-12-19T06:07:11.732Z,0
2016-12-19T06:08:12.787Z,0
2016-12-19T06:09:13.481Z,0
2016-12-19T06:10:10.998Z,0
2016-12-19T06:11:17.630Z,0
2016-12-19T06:12:16.812Z,0
2016-12-19T06:13:16.733Z,0
2016-12-19T06:14:17.636Z,0
2016-12-19T06:15:17.793Z,0
2016-12-19T06:16:18.589Z,0
2016-12-19T06:17:15.706Z,0
2016-12-19T06:18:16.422Z,0
2016-12-19T06:19:16.849Z,0
2016-12-19T06:20:12.616Z,0
2016-12-19T06:21:12.268Z,0
2016-12-19T06:22:12.878Z,0
2016-12-19T06:23:12.510Z,0
2016-12-19T06:24:12.143Z,0
2016-12-19T06:25:12.519Z,0
2016-12-19T06:26:12.232Z,0
2016-12-19T06:27:12.025Z,0
2016-12-19T06:28:11.382Z,0
2016-12-19T06:29:11.410Z,0
2016-12-19T06:30:10.669Z,0
2016-12-19T06:31:11.778Z,0
2016-12-19T06:32:12.812Z,0
2016-12-19T06:33:11.243Z,0
2016-12-19T06:34:13.325Z,0
2016-12-19T06:35:13.203Z,0
2016-12-19T06:36:11.761Z,0
2016-12-19T06:37:11.596Z,0
2016-12-19T06:38:12.002Z,0
2016-12-19T06:39:12.515Z,0
2016-12-19T06:40:12.406Z,0
2016-12-19T06:41:12.491Z,0
2016-12-19T06:42:12.118Z,0
2016-12-19T06:43:12.380Z,0
2016-12-19T06:44:13.135Z,0
2016-12-19T06:45:11.559Z,0
2016-12-19T06:46:11.960Z,0
2016-12-19T06:47:12.880Z,0
2016-12-19T06:48:12.088Z,0
2016-12-19T06:49:12.585Z,0
2016-12-19T06:50:11.411Z,0
2016-12-19T06:51:11.641Z,0
2016-12-19T06:52:11.835Z,0
2016-12-19T06:53:12.339Z,0
2016-12-19T06:54:12.405Z,0
2016-12-19T06:55:14.102Z,0
2016-12-19T06:56:12.271Z,0
2016-12-19T06:57:13.641Z,0
2016-12-19T06:58:12.988Z,0
2016-12-19T06:59:13.918Z,0
2016-12-19T07:00:13.860Z,0
2016-12-19T07:01:13.272Z,0
2016-12-19T07:02:12.492Z,0
2016-12-19T07:03:13.624Z,0
2016-12-19T07:04:13.818Z,0
2016-12-19T07:05:12.311Z,0
2016-12-19T07:06:14.117Z,0
2016-12-19T07:07:13.692Z,0
2016-12-19T07:08:14.200Z,0
2016-12-19T07:09:16.789Z,0
2016-12-19T07:10:14.453Z,0
2016-12-19T07:11:14.889Z,0
2016-12-19T07:12:15.292Z,0
2016-12-19T07:13:11.854Z,0
2016-12-19T07:14:12.343Z,0
2016-12-19T07:15:13.746Z,5
2016-12-19T07:16:13.072Z,5
2016-12-19T07:17:13.139Z,5
2016-12-19T07:18:13.581Z,5
2016-12-19T07:21:24.129Z,5
2016-12-19T07:27:13.578Z,10
2016-12-19T07:28:12.724Z,15
2016-12-19T07:29:11.459Z,15
2016-12-19T07:30:13.962Z,15
2016-12-19T07:31:14.185Z,15
2016-12-19T07:32:12.964Z,15
2016-12-19T07:33:12.569Z,15
2016-12-19T07:34:13.533Z,15
2016-12-19T07:35:12.766Z,15
2016-12-19T07:36:13.176Z,15
2016-12-19T07:37:12.757Z,15
2016-12-19T07:38:13.359Z,15
2016-12-19T07:39:13.148Z,15
2016-12-19T07:40:13.018Z,15
2016-12-19T07:41:17.463Z,15
2016-12-19T07:42:15.702Z,15
2016-12-19T07:43:19.618Z,15
2016-12-19T07:44:17.371Z,15
2016-12-19T07:45:13.748Z,20
2016-12-19T07:46:14.062Z,20
2016-12-19T07:47:13.001Z,20
2016-12-19T07:48:12.920Z,20
2016-12-19T07:49:13.117Z,20
2016-12-19T07:50:12.350Z,20
2016-12-19T07:51:13.575Z,25
2016-12-19T07:52:13.980Z,25
2016-12-19T07:53:13.588Z,20
2016-12-19T07:54:13.298Z,20
2016-12-19T07:55:12.964Z,25
2016-12-19T07:56:13.331Z,25
2016-12-19T07:57:13.368Z,30
2016-12-19T07:58:13.216Z,35
2016-12-19T07:59:13.052Z,40
2016-12-19T08:00:13.686Z,45
2016-12-19T08:01:12.753Z,50
2016-12-19T08:02:13.615Z,50
2016-12-19T08:03:13.639Z,55
2016-12-19T08:04:13.404Z,55
2016-12-19T08:05:13.635Z,60
2016-12-19T08:06:14.361Z,60
2016-12-19T08:07:13.157Z,65
2016-12-19T08:08:13.644Z,70
2016-12-19T08:09:13.380Z,75
2016-12-19T08:10:13.325Z,80
2016-12-19T08:11:13.365Z,80
2016-12-19T08:12:13.172Z,85
2016-12-19T08:13:13.376Z,100
2016-12-19T08:14:13.805Z,105
2016-12-19T08:15:13.780Z,105
2016-12-19T08:16:13.849Z,110
2016-12-19T08:17:13.386Z,110
2016-12-19T08:18:13.923Z,110
2016-12-19T08:19:13.593Z,115
2016-12-19T08:20:13.084Z,115
2016-12-19T08:21:13.653Z,120
2016-12-19T08:22:13.290Z,125
2016-12-19T08:23:13.229Z,125
2016-12-19T08:24:13.369Z,125
2016-12-19T08:25:13.353Z,125
2016-12-19T08:26:14.102Z,125
2016-12-19T08:27:14.411Z,125
2016-12-19T08:28:13.690Z,120
2016-12-19T08:29:13.719Z,125
2016-12-19T08:30:14.477Z,130
2016-12-19T08:31:13.952Z,130
2016-12-19T08:32:13.965Z,125
2016-12-19T08:33:13.531Z,120
2016-12-19T08:34:13.859Z,125
2016-12-19T08:35:13.713Z,130
2016-12-19T08:36:16.405Z,140
2016-12-19T08:37:14.772Z,145
2016-12-19T08:38:13.471Z,145
2016-12-19T08:39:13.793Z,150
2016-12-19T08:40:14.071Z,160
2016-12-19T08:41:14.431Z,165
2016-12-19T08:42:14.260Z,170
2016-12-19T08:43:13.772Z,170
2016-12-19T08:44:13.621Z,175
2016-12-19T08:45:13.476Z,175
2016-12-19T08:46:13.740Z,175
2016-12-19T08:47:13.345Z,170
2016-12-19T08:48:14.113Z,180
2016-12-19T08:49:13.551Z,185
2016-12-19T08:50:13.593Z,195
2016-12-19T08:51:14.149Z,205
2016-12-19T08:52:14.131Z,205
2016-12-19T08:53:13.297Z,210
2016-12-19T08:54:13.543Z,205
2016-12-19T08:55:13.941Z,195
2016-12-19T08:56:13.996Z,190
2016-12-19T08:57:14.103Z,195
2016-12-19T08:58:13.016Z,190
2016-12-19T08:59:14.227Z,190
2016-12-19T09:00:13.297Z,195
2016-12-19T09:01:14.656Z,200
2016-12-19T09:02:14.377Z,195
2016-12-19T09:03:14.429Z,185
2016-12-19T09:04:14.226Z,185
2016-12-19T09:05:14.031Z,195
2016-12-19T09:06:12.927Z,195
2016-12-19T09:07:13.957Z,195
2016-12-19T09:08:13.671Z,205
2016-12-19T09:09:14.344Z,225
2016-12-19T09:10:13.897Z,225
2016-12-19T09:11:13.171Z,225
2016-12-19T09:12:14.391Z,230
2016-12-19T09:13:14.565Z,225
2016-12-19T09:14:14.137Z,220
2016-12-19T09:15:14.082Z,225
2016-12-19T09:16:13.556Z,220
2016-12-19T09:17:14.035Z,220
2016-12-19T09:18:14.033Z,225
2016-12-19T09:19:14.764Z,220
2016-12-19T09:20:15.074Z,215
2016-12-19T09:21:14.707Z,230
2016-12-19T09:22:13.982Z,235
2016-12-19T09:23:14.591Z,240
2016-12-19T09:24:13.547Z,255
2016-12-19T09:25:14.457Z,260
2016-12-19T09:26:14.570Z,265
2016-12-19T09:27:13.936Z,260
2016-12-19T09:28:14.552Z,255
2016-12-19T09:29:14.024Z,250
2016-12-19T09:30:14.291Z,240
2016-12-19T09:31:15.450Z,230
2016-12-19T09:32:14.176Z,235
2016-12-19T09:33:14.656Z,230
2016-12-19T09:34:14.584Z,225
2016-12-19T09:35:14.656Z,215
2016-12-19T09:36:14.622Z,210
2016-12-19T09:37:13.915Z,210
2016-12-19T09:38:15.602Z,210
2016-12-19T09:39:14.799Z,210
2016-12-19T09:40:15.265Z,210
2016-12-19T09:41:14.748Z,220
2016-12-19T09:42:14.109Z,240
2016-12-19T09:43:15.672Z,255
2016-12-19T09:44:14.861Z,260
2016-12-19T09:45:14.739Z,255
2016-12-19T09:46:15.535Z,280
2016-12-19T09:47:15.890Z,315
2016-12-19T09:48:14.850Z,335
2016-12-19T09:49:15.677Z,330
2016-12-19T09:50:15.489Z,340
2016-12-19T09:51:14.481Z,340
2016-12-19T09:52:14.476Z,330
2016-12-19T09:53:14.901Z,320
2016-12-19T09:54:15.310Z,315
2016-12-19T09:55:14.457Z,305
2016-12-19T09:56:14.413Z,285
2016-12-19T09:57:16.590Z,285
2016-12-19T09:58:15.566Z,275
2016-12-19T09:59:14.430Z,265
2016-12-19T10:00:14.547Z,235
2016-12-19T10:01:14.214Z,240
2016-12-19T10:02:15.969Z,240
2016-12-19T10:03:14.810Z,235
2016-12-19T10:04:15.316Z,245
2016-12-19T10:05:14.075Z,270
2016-12-19T10:06:15.105Z,295
2016-12-19T10:07:14.975Z,310
2016-12-19T10:08:15.764Z,315
2016-12-19T10:09:15.302Z,305
2016-12-19T10:10:15.358Z,305
2016-12-19T10:11:14.250Z,285
2016-12-19T10:12:15.311Z,260
2016-12-19T10:13:16.314Z,255
2016-12-19T10:14:15.209Z,245
2016-12-19T10:15:15.415Z,245
2016-12-19T10:16:15.594Z,255
2016-12-19T10:17:15.240Z,235
2016-12-19T10:18:15.979Z,230
2016-12-19T10:19:14.675Z,230
2016-12-19T10:20:14.620Z,235
2016-12-19T10:21:16.591Z,245
2016-12-19T10:22:15.226Z,240
2016-12-19T10:23:14.667Z,260
2016-12-19T10:24:14.674Z,255
2016-12-19T10:25:15.715Z,265
2016-12-19T10:26:16.089Z,270
2016-12-19T10:27:15.076Z,275
2016-12-19T10:28:14.698Z,280
2016-12-19T10:29:16.021Z,280
2016-12-19T10:30:15.838Z,270
2016-12-19T10:31:16.071Z,255
2016-12-19T10:32:14.515Z,255
2016-12-19T10:33:15.026Z,265
2016-12-19T10:34:15.647Z,285
2016-12-19T10:35:14.635Z,315
2016-12-19T10:36:14.347Z,325
2016-12-19T10:37:15.511Z,325
2016-12-19T10:38:15.358Z,320
2016-12-19T10:39:14.497Z,315
2016-12-19T10:40:16.352Z,305
2016-12-19T10:41:14.997Z,285
2016-12-19T10:42:15.053Z,270
2016-12-19T10:43:15.712Z,270
2016-12-19T10:44:15.785Z,275
2016-12-19T10:45:15.979Z,285
2016-12-19T10:46:15.937Z,280
2016-12-19T10:47:15.932Z,275
2016-12-19T10:48:16.334Z,285
2016-12-19T10:49:16.215Z,300
2016-12-19T10:50:15.823Z,320
2016-12-19T10:51:15.917Z,340
2016-12-19T10:52:15.373Z,345
2016-12-19T10:53:15.683Z,350
2016-12-19T10:54:16.600Z,355
2016-12-19T10:55:16.427Z,350
2016-12-19T10:56:16.270Z,335
2016-12-19T10:57:16.382Z,345
2016-12-19T10:58:14.924Z,350
2016-12-19T10:59:15.867Z,335
2016-12-19T11:00:16.781Z,300
2016-12-19T11:01:15.583Z,290
2016-12-19T11:02:15.194Z,285
2016-12-19T11:03:15.570Z,305
2016-12-19T11:04:15.732Z,300
2016-12-19T11:05:16.515Z,300
2016-12-19T11:06:16.664Z,310
2016-12-19T11:07:16.710Z,315
2016-12-19T11:08:15.722Z,310
2016-12-19T11:09:16.101Z,300
2016-12-19T11:10:16.771Z,305
2016-12-19T11:11:16.197Z,325
2016-12-19T11:12:16.005Z,335
2016-12-19T11:13:15.638Z,310
2016-12-19T11:14:15.603Z,290
2016-12-19T11:15:16.378Z,300
2016-12-19T11:16:15.226Z,325
2016-12-19T11:17:16.757Z,390
2016-12-19T11:18:15.202Z,435
2016-12-19T11:19:15.843Z,435
2016-12-19T11:20:15.868Z,410
2016-12-19T11:21:15.922Z,450
2016-12-19T11:22:15.962Z,435
2016-12-19T11:23:15.806Z,400
2016-12-19T11:24:15.430Z,430
2016-12-19T11:25:16.067Z,455
2016-12-19T11:26:16.164Z,485
2016-12-19T11:27:17.158Z,480
2016-12-19T11:28:15.762Z,420
2016-12-19T11:29:16.302Z,425
2016-12-19T11:30:16.710Z,440
2016-12-19T11:31:16.053Z,385
2016-12-19T11:32:16.406Z,335
2016-12-19T11:33:16.349Z,335
2016-12-19T11:34:15.426Z,320
2016-12-19T11:35:15.703Z,300
2016-12-19T11:36:15.963Z,295
2016-12-19T11:37:15.522Z,300
2016-12-19T11:38:16.144Z,325
2016-12-19T11:39:16.950Z,320
2016-12-19T11:40:16.563Z,330
2016-12-19T11:41:16.948Z,335
2016-12-19T11:42:16.517Z,320
2016-12-19T11:43:16.692Z,340
2016-12-19T11:44:16.135Z,360
2016-12-19T11:45:16.216Z,380
2016-12-19T11:46:16.337Z,375
2016-12-19T11:47:16.590Z,340
2016-12-19T11:48:16.240Z,345
2016-12-19T11:49:17.051Z,380
2016-12-19T11:50:16.073Z,405
2016-12-19T11:51:16.203Z,410
2016-12-19T11:52:15.866Z,415
2016-12-19T11:53:16.820Z,385
2016-12-19T11:54:16.312Z,360
2016-12-19T11:55:16.165Z,330
2016-12-19T11:56:16.608Z,325
2016-12-19T11:57:16.122Z,335
2016-12-19T11:58:16.491Z,330
2016-12-19T11:59:16.499Z,300
2016-12-19T12:00:17.057Z,265
2016-12-19T12:01:16.290Z,250
2016-12-19T12:02:16.741Z,250
2016-12-19T12:03:17.246Z,270
2016-12-19T12:04:16.777Z,290
2016-12-19T12:05:17.121Z,290
2016-12-19T12:06:17.306Z,270
2016-12-19T12:07:16.755Z,255
2016-12-19T12:08:16.682Z,240
2016-12-19T12:09:17.168Z,225
2016-12-19T12:10:15.957Z,215
2016-12-19T12:11:17.520Z,205
2016-12-19T12:12:16.164Z,195
2016-12-19T12:13:16.947Z,185
2016-12-19T12:14:17.275Z,170
2016-12-19T12:15:17.494Z,165
2016-12-19T12:16:16.871Z,165
2016-12-19T12:17:16.794Z,165
2016-12-19T12:18:16.854Z,180
2016-12-19T12:19:16.895Z,185
2016-12-19T12:20:16.488Z,180
2016-12-19T12:21:16.796Z,175
2016-12-19T12:22:16.487Z,180
2016-12-19T12:23:17.604Z,180
2016-12-19T12:24:16.479Z,180
2016-12-19T12:25:16.592Z,175
2016-12-19T12:26:17.016Z,185
2016-12-19T12:27:17.606Z,190
2016-12-19T12:28:16.849Z,180
2016-12-19T12:29:17.043Z,180
2016-12-19T12:30:18.806Z,190
2016-12-19T12:31:17.313Z,205
2016-12-19T12:32:16.497Z,195
2016-12-19T12:33:17.836Z,175
2016-12-19T12:34:16.585Z,175
2016-12-19T12:35:16.338Z,195
2016-12-19T12:36:17.076Z,215
2016-12-19T12:37:18.722Z,210
2016-12-19T12:38:17.419Z,215
2016-12-19T12:39:17.866Z,220
2016-12-19T12:40:16.639Z,230
2016-12-19T12:41:16.786Z,235
2016-12-19T12:42:17.609Z,235
2016-12-19T12:43:17.289Z,245
2016-12-19T12:44:17.408Z,255
2016-12-19T12:45:16.932Z,270
2016-12-19T12:46:18.469Z,260
2016-12-19T12:47:18.252Z,260
2016-12-19T12:48:17.627Z,250
2016-12-19T12:49:17.417Z,250
2016-12-19T12:50:17.232Z,240
2016-12-19T12:51:17.979Z,235
2016-12-19T12:52:16.958Z,235
2016-12-19T12:53:18.200Z,235
2016-12-19T12:54:18.999Z,245
2016-12-19T12:55:18.391Z,250
2016-12-19T12:56:19.500Z,255
2016-12-19T12:57:17.340Z,250
2016-12-19T12:58:18.721Z,235
2016-12-19T12:59:17.040Z,225
2016-12-19T13:00:17.848Z,215
2016-12-19T13:01:17.479Z,205
2016-12-19T13:02:18.440Z,200
2016-12-19T13:03:17.286Z,190
2016-12-19T13:04:17.709Z,170
2016-12-19T13:05:16.680Z,170
2016-12-19T13:06:18.033Z,165
2016-12-19T13:07:18.183Z,170
2016-12-19T13:08:18.233Z,170
2016-12-19T13:09:18.459Z,165
2016-12-19T13:10:18.780Z,155
2016-12-19T13:11:19.737Z,140
2016-12-19T13:12:18.003Z,135
2016-12-19T13:13:19.101Z,130
2016-12-19T13:14:19.085Z,125
2016-12-19T13:15:19.426Z,120
2016-12-19T13:16:19.765Z,115
2016-12-19T13:17:19.902Z,110
2016-12-19T13:18:19.569Z,115
2016-12-19T13:19:19.248Z,130
2016-12-19T13:20:19.982Z,140
2016-12-19T13:21:18.494Z,140
2016-12-19T13:22:18.557Z,135
2016-12-19T13:23:17.366Z,140
2016-12-19T13:24:18.378Z,155
2016-12-19T13:25:18.196Z,165
2016-12-19T13:26:16.955Z,180
2016-12-19T13:27:19.372Z,175
2016-12-19T13:28:17.938Z,165
2016-12-19T13:29:17.830Z,155
2016-12-19T13:30:17.630Z,145
2016-12-19T13:31:18.719Z,140
2016-12-19T13:32:17.753Z,140
2016-12-19T13:33:17.287Z,145
2016-12-19T13:34:18.169Z,155
2016-12-19T13:35:17.803Z,155
2016-12-19T13:36:18.081Z,155
2016-12-19T13:37:17.960Z,155
2016-12-19T13:38:19.246Z,150
2016-12-19T13:39:17.551Z,150
2016-12-19T13:40:17.892Z,150
2016-12-19T13:41:18.459Z,145
2016-12-19T13:42:17.956Z,135
2016-12-19T13:43:19.608Z,135
2016-12-19T13:44:18.824Z,130
2016-12-19T13:45:18.156Z,125
2016-12-19T13:46:18.018Z,125
2016-12-19T13:47:17.966Z,120
2016-12-19T13:48:18.152Z,120
2016-12-19T13:49:17.735Z,115
2016-12-19T13:50:19.024Z,120
2016-12-19T13:51:19.725Z,125
2016-12-19T13:52:17.996Z,125
2016-12-19T13:53:18.915Z,125
2016-12-19T13:54:17.775Z,120
2016-12-19T13:55:19.022Z,115
2016-12-19T13:56:18.228Z,115
2016-12-19T13:57:18.608Z,110
2016-12-19T13:58:19.104Z,100
2016-12-19T13:59:17.754Z,95
2016-12-19T14:00:19.179Z,95
2016-12-19T14:01:18.039Z,95
2016-12-19T14:02:18.426Z,95
2016-12-19T14:03:19.220Z,95
2016-12-19T14:04:18.196Z,90
2016-12-19T14:05:18.891Z,90
2016-12-19T14:06:19.309Z,95
2016-12-19T14:07:18.199Z,100
2016-12-19T14:08:18.749Z,110
2016-12-19T14:09:18.990Z,120
2016-12-19T14:10:18.741Z,130
2016-12-19T14:11:18.924Z,130
2016-12-19T14:12:19.470Z,130
2016-12-19T14:13:18.418Z,135
2016-12-19T14:14:19.333Z,130
2016-12-19T14:15:19.753Z,130
2016-12-19T14:16:19.914Z,125
2016-12-19T14:17:19.651Z,120
2016-12-19T14:18:19.420Z,120
2016-12-19T14:19:19.591Z,120
2016-12-19T14:20:19.232Z,115
2016-12-19T14:21:18.155Z,110
2016-12-19T14:22:19.016Z,105
2016-12-19T14:23:18.444Z,100
2016-12-19T14:24:18.884Z,90
2016-12-19T14:25:18.369Z,85